KMOT

Minot International Airport

Minot, North Dakota, USA
METAR KMOT 190254Z 23016KT 10SM CLR 06/M02 A2953 RMK AO2 SLP017 T00611017 58016
Observed Flight Rules
Jan-19 @ 02:54 UTC (48 minutes ago) Visual Flight Rules
Wind Visibility Clouds
230° at 16 knots 10 miles
  • Clear skies
Temperatures Readings
Current 6°C / 43°F
Dewpoint -2°C / 28°F
Humidity 57%
Altimeter 29.53" Hg
Pressure 1001.7 hPa
Elevation 519
METAR KMOT 190254Z 23016KT 10SM CLR 06/M02 A2953 RMK AO2 SLP017 T00611017 58016
Observed Flight Rules
Jan-19 @ 02:54 UTC
(48 minutes ago)
VFR
Wind Visibility
230° at 16 knots 10 miles
Clouds
  • Clear skies
Temperature Dewpoint
6°C / 43°F -2°C / 28°F
Humidity Altimeter Pressure
57% 29.53" Hg 1001.7 hPa